Time;durP1;ratioP1;P1;durP2;ratioP2;P2;SDS_P1;SDS_P2;PMS_P1;PMS_P2;Temp;Humidity;BMP_temperature;BMP_pressure;BME280_temperature;BME280_humidity;BME280_pressure;Samples;Min_cycle;Max_cycle;Signal;HPM_P1;HPM_P2
2023/04/20 00:01:54;;;;;;;5.13;4.72;;;;;;;;;;5074620;28;20407;-84
2023/04/20 00:04:20;;;;;;;5.18;4.78;;;;;;;;;;5075543;28;20407;-83
2023/04/20 00:06:46;;;;;;;5.40;5.00;;;;;;;;;;5076601;28;20947;-84
2023/04/20 00:09:13;;;;;;;5.60;5.10;;;;;;;;;;5078231;28;20390;-84
2023/04/20 00:11:39;;;;;;;5.57;5.18;;;;;;;;;;5082701;28;20402;-82
2023/04/20 00:14:06;;;;;;;6.40;5.90;;;;;;;;;;5077555;28;20392;-83
2023/04/20 00:16:32;;;;;;;6.18;5.68;;;;;;;;;;5074956;28;20383;-83
2023/04/20 00:19:01;;;;;;;6.53;6.03;;;;;;;;;;5075443;28;20785;-83
2023/04/20 00:21:27;;;;;;;6.05;5.63;;;;;;;;;;5075311;28;20374;-83
2023/04/20 00:23:53;;;;;;;6.18;5.68;;;;;;;;;;5075150;28;20387;-83
2023/04/20 00:26:20;;;;;;;6.70;6.20;;;;;;;;;;5076116;28;20384;-83
2023/04/20 00:28:46;;;;;;;6.47;5.97;;;;;;;;;;5074242;28;20400;-83
2023/04/20 00:31:12;;;;;;;6.55;6.05;;;;;;;;;;5073907;28;20403;-83
2023/04/20 00:33:38;;;;;;;6.43;5.95;;;;;;;;;;5074199;28;20873;-81
2023/04/20 00:36:04;;;;;;;7.22;6.63;;;;;;;;;;5072853;28;20588;-84
2023/04/20 00:38:30;;;;;;;7.32;6.72;;;;;;;;;;5075153;28;20890;-81
2023/04/20 00:40:56;;;;;;;7.15;6.65;;;;;;;;;;5078921;28;21171;-82
2023/04/20 00:43:22;;;;;;;7.78;7.18;;;;;;;;;;5083546;28;20426;-82
2023/04/20 00:45:50;;;;;;;7.80;7.20;;;;;;;;;;5079618;28;20387;-82
2023/04/20 00:48:16;;;;;;;7.80;7.20;;;;;;;;;;5081163;28;20426;-82
2023/04/20 00:50:42;;;;;;;7.45;6.93;;;;;;;;;;5076504;28;20904;-82
2023/04/20 00:53:09;;;;;;;7.72;7.13;;;;;;;;;;5078414;28;20380;-83
2023/04/20 00:55:36;;;;;;;7.10;6.60;;;;;;;;;;5078228;27;20370;-82
2023/04/20 00:58:02;;;;;;;6.60;6.10;;;;;;;;;;5074581;28;20418;-82
2023/04/20 01:00:28;;;;;;;7.13;6.63;;;;;;;;;;5075872;28;20372;-82
2023/04/20 01:02:55;;;;;;;6.70;6.25;;;;;;;;;;5073785;28;20376;-83
2023/04/20 01:05:21;;;;;;;7.25;6.63;;;;;;;;;;5073784;28;20390;-83
2023/04/20 01:07:47;;;;;;;6.65;6.15;;;;;;;;;;5075567;28;20421;-83
2023/04/20 01:10:13;;;;;;;6.78;6.28;;;;;;;;;;5072423;28;20380;-82
2023/04/20 01:12:39;;;;;;;6.55;6.05;;;;;;;;;;5090731;28;20936;-82
2023/04/20 01:15:05;;;;;;;7.07;6.57;;;;;;;;;;5100778;28;20372;-83
2023/04/20 01:17:38;;;;;;;6.90;6.40;;;;;;;;;;5093231;28;20409;-83
2023/04/20 01:20:06;;;;;;;7.07;6.57;;;;;;;;;;5093201;28;20378;-83
2023/04/20 01:22:32;;;;;;;6.85;6.25;;;;;;;;;;5083288;28;20530;-83
2023/04/20 01:24:58;;;;;;;6.90;6.30;;;;;;;;;;5091371;28;20377;-83
2023/04/20 01:27:26;;;;;;;7.10;6.50;;;;;;;;;;5092388;28;21432;-83
2023/04/20 01:29:52;;;;;;;7.28;6.70;;;;;;;;;;5093016;28;20390;-82
2023/04/20 01:32:18;;;;;;;6.30;5.80;;;;;;;;;;5093012;28;20461;-83
2023/04/20 01:34:44;;;;;;;6.70;6.20;;;;;;;;;;5092559;28;20378;-83
2023/04/20 01:37:10;;;;;;;6.72;6.22;;;;;;;;;;5092675;28;20389;-82
2023/04/20 01:39:37;;;;;;;6.75;6.18;;;;;;;;;;5092864;28;20413;-82
2023/04/20 01:42:04;;;;;;;6.63;6.13;;;;;;;;;;5093886;28;20413;-82
2023/04/20 01:44:30;;;;;;;7.28;6.68;;;;;;;;;;5104786;28;20376;-82
2023/04/20 01:46:56;;;;;;;6.82;6.10;;;;;;;;;;5102767;28;20424;-82
2023/04/20 01:49:21;;;;;;;6.60;6.10;;;;;;;;;;5100855;28;20372;-83
2023/04/20 01:51:47;;;;;;;7.13;6.53;;;;;;;;;;5099948;28;20385;-82
2023/04/20 01:54:13;;;;;;;6.50;6.07;;;;;;;;;;5089614;28;20394;-82
2023/04/20 01:56:39;;;;;;;7.07;6.57;;;;;;;;;;5076295;28;20399;-82
2023/04/20 01:59:05;;;;;;;6.45;6.05;;;;;;;;;;5090755;28;20374;-82
2023/04/20 02:01:31;;;;;;;6.57;6.10;;;;;;;;;;5088292;28;20434;-82
2023/04/20 02:03:57;;;;;;;6.30;5.80;;;;;;;;;;5092438;28;20467;-82
2023/04/20 02:06:23;;;;;;;6.90;6.40;;;;;;;;;;5091207;28;20804;-83
2023/04/20 02:08:49;;;;;;;6.22;5.78;;;;;;;;;;5093932;28;20497;-82
2023/04/20 02:11:15;;;;;;;6.82;6.32;;;;;;;;;;5089752;28;20386;-82
2023/04/20 02:13:41;;;;;;;6.53;6.03;;;;;;;;;;5092284;28;20401;-82
2023/04/20 02:16:07;;;;;;;7.43;6.78;;;;;;;;;;5092228;28;20417;-82
2023/04/20 02:18:33;;;;;;;7.70;7.10;;;;;;;;;;5092162;28;20374;-82
2023/04/20 02:21:00;;;;;;;7.22;6.63;;;;;;;;;;5091657;28;20855;-82
2023/04/20 02:23:26;;;;;;;7.35;6.82;;;;;;;;;;5091653;28;20374;-82
2023/04/20 02:25:52;;;;;;;7.20;6.60;;;;;;;;;;5092086;28;20385;-82
2023/04/20 02:28:18;;;;;;;7.03;6.43;;;;;;;;;;5091816;28;20409;-82
2023/04/20 02:30:44;;;;;;;7.50;6.90;;;;;;;;;;5091969;28;20375;-82
2023/04/20 02:33:10;;;;;;;7.95;7.25;;;;;;;;;;5091666;28;20400;-82
2023/04/20 02:35:36;;;;;;;7.50;6.90;;;;;;;;;;5091839;28;20442;-82
2023/04/20 02:38:02;;;;;;;8.35;7.75;;;;;;;;;;5091852;28;20478;-82
2023/04/20 02:40:28;;;;;;;7.73;7.13;;;;;;;;;;5091687;28;20549;-82
2023/04/20 02:42:55;;;;;;;7.75;7.15;;;;;;;;;;5094289;28;20925;-82
2023/04/20 02:45:20;;;;;;;8.27;7.68;;;;;;;;;;5107110;28;20453;-82
2023/04/20 02:47:46;;;;;;;7.97;7.38;;;;;;;;;;5105146;28;20481;-82
2023/04/20 02:50:12;;;;;;;8.18;7.57;;;;;;;;;;5095863;28;20790;-82
2023/04/20 02:52:38;;;;;;;8.40;7.70;;;;;;;;;;5094998;28;20388;-82
2023/04/20 02:55:05;;;;;;;7.78;7.18;;;;;;;;;;5101874;28;20452;-82
2023/04/20 02:57:31;;;;;;;8.68;7.97;;;;;;;;;;5091455;28;20442;-82
2023/04/20 02:59:57;;;;;;;9.45;8.75;;;;;;;;;;5091538;28;20393;-82
2023/04/20 03:02:23;;;;;;;9.73;9.02;;;;;;;;;;5091040;28;20386;-83
2023/04/20 03:04:49;;;;;;;10.10;9.30;;;;;;;;;;5091477;28;20519;-82
2023/04/20 03:07:16;;;;;;;11.65;10.65;;;;;;;;;;5091143;28;20751;-82
2023/04/20 03:09:42;;;;;;;12.55;11.60;;;;;;;;;;5091436;28;20453;-82
2023/04/20 03:12:08;;;;;;;12.13;11.23;;;;;;;;;;5090941;28;20409;-82
2023/04/20 03:14:35;;;;;;;11.93;11.02;;;;;;;;;;5090995;28;20423;-83
2023/04/20 03:17:01;;;;;;;12.27;11.23;;;;;;;;;;5091257;28;20374;-83
2023/04/20 03:19:27;;;;;;;12.00;11.10;;;;;;;;;;5091133;28;20491;-82
2023/04/20 03:21:53;;;;;;;12.73;11.73;;;;;;;;;;5091243;28;20472;-82
2023/04/20 03:24:19;;;;;;;11.88;11.07;;;;;;;;;;5091253;28;20390;-83
2023/04/20 03:26:45;;;;;;;13.13;12.13;;;;;;;;;;5091104;28;20386;-82
2023/04/20 03:29:11;;;;;;;13.80;12.70;;;;;;;;;;5091307;28;20386;-82
2023/04/20 03:31:37;;;;;;;15.75;14.55;;;;;;;;;;5089440;28;20867;-82
2023/04/20 03:34:06;;;;;;;18.52;17.02;;;;;;;;;;5089432;28;20378;-82
2023/04/20 03:36:32;;;;;;;23.40;21.38;;;;;;;;;;5093772;28;20384;-82
2023/04/20 03:38:58;;;;;;;23.20;21.20;;;;;;;;;;5095021;28;20459;-82
2023/04/20 03:41:24;;;;;;;23.40;21.50;;;;;;;;;;5095212;28;20382;-82
2023/04/20 03:43:50;;;;;;;21.73;19.92;;;;;;;;;;5099473;28;20383;-82
2023/04/20 03:46:16;;;;;;;19.50;17.95;;;;;;;;;;5109496;28;20369;-82
2023/04/20 03:48:42;;;;;;;17.20;15.90;;;;;;;;;;5105483;28;20913;-82
2023/04/20 03:51:08;;;;;;;15.60;14.35;;;;;;;;;;5100134;28;20482;-82
2023/04/20 03:53:34;;;;;;;15.10;13.90;;;;;;;;;;5086593;28;20479;-82
2023/04/20 03:56:00;;;;;;;14.45;13.45;;;;;;;;;;5086015;28;20381;-82
2023/04/20 03:58:26;;;;;;;14.05;13.05;;;;;;;;;;5093117;28;20374;-82
2023/04/20 04:00:53;;;;;;;13.27;12.17;;;;;;;;;;5094872;28;20519;-82
2023/04/20 04:03:19;;;;;;;11.65;10.85;;;;;;;;;;5093679;28;20900;-82
2023/04/20 04:05:45;;;;;;;12.70;11.80;;;;;;;;;;5092640;28;20858;-82
2023/04/20 04:08:11;;;;;;;12.63;11.63;;;;;;;;;;5087319;28;20406;-82
2023/04/20 04:10:37;;;;;;;12.47;11.47;;;;;;;;;;5091267;28;20388;-83
2023/04/20 04:13:03;;;;;;;13.55;12.40;;;;;;;;;;5091777;28;20879;-82
2023/04/20 04:15:29;;;;;;;13.80;12.70;;;;;;;;;;5093317;28;20378;-82
2023/04/20 04:17:55;;;;;;;12.15;11.25;;;;;;;;;;5089330;28;20471;-83
2023/04/20 04:20:21;;;;;;;11.75;10.95;;;;;;;;;;5077080;28;20407;-82
2023/04/20 04:22:47;;;;;;;11.20;10.32;;;;;;;;;;5076805;28;20391;-83
2023/04/20 04:25:13;;;;;;;11.80;10.93;;;;;;;;;;5104383;28;20798;-82
2023/04/20 04:27:39;;;;;;;11.25;10.35;;;;;;;;;;5102637;28;20404;-83
2023/04/20 04:30:06;;;;;;;10.57;9.88;;;;;;;;;;5097510;28;20390;-83
2023/04/20 04:32:33;;;;;;;10.98;10.18;;;;;;;;;;5094606;28;20388;-83
2023/04/20 04:35:00;;;;;;;10.43;9.63;;;;;;;;;;5096338;28;20847;-83
2023/04/20 04:37:26;;;;;;;11.10;10.30;;;;;;;;;;5103534;28;20813;-83
2023/04/20 04:39:53;;;;;;;10.13;9.38;;;;;;;;;;5093483;28;20435;-83
2023/04/20 04:42:19;;;;;;;10.98;10.18;;;;;;;;;;5093891;28;20739;-83
2023/04/20 04:44:45;;;;;;;10.93;10.13;;;;;;;;;;5098552;28;20388;-83
2023/04/20 04:47:11;;;;;;;11.63;10.82;;;;;;;;;;5097911;28;20402;-83
2023/04/20 04:49:39;;;;;;;12.30;11.30;;;;;;;;;;5101823;28;20812;-83
2023/04/20 04:52:05;;;;;;;12.63;11.63;;;;;;;;;;5097385;28;20366;-83
2023/04/20 04:54:31;;;;;;;14.63;13.43;;;;;;;;;;5094074;28;20793;-83
2023/04/20 04:56:57;;;;;;;14.68;13.57;;;;;;;;;;5098661;28;20402;-83
2023/04/20 04:59:23;;;;;;;14.27;13.10;;;;;;;;;;5093764;28;20446;-83
2023/04/20 05:01:49;;;;;;;14.25;13.25;;;;;;;;;;5093673;28;20450;-83
2023/04/20 05:04:15;;;;;;;14.50;13.47;;;;;;;;;;5093685;28;20395;-83
2023/04/20 05:06:41;;;;;;;15.98;14.77;;;;;;;;;;5087275;28;20398;-83
2023/04/20 05:09:08;;;;;;;16.67;15.38;;;;;;;;;;5092960;28;20863;-83
2023/04/20 05:11:34;;;;;;;18.52;17.02;;;;;;;;;;5093198;28;20866;-83
2023/04/20 05:14:01;;;;;;;17.77;16.40;;;;;;;;;;5093337;28;20451;-83
2023/04/20 05:16:27;;;;;;;17.77;16.38;;;;;;;;;;5093449;28;20417;-84
2023/04/20 05:18:53;;;;;;;18.08;16.67;;;;;;;;;;5093134;28;20370;-84
2023/04/20 05:21:19;;;;;;;18.00;16.60;;;;;;;;;;5093185;28;20400;-84
2023/04/20 05:23:45;;;;;;;19.67;17.90;;;;;;;;;;5093315;28;20886;-83
2023/04/20 05:26:11;;;;;;;18.33;16.77;;;;;;;;;;5091508;28;20382;-85
2023/04/20 05:28:43;;;;;;;18.83;17.33;;;;;;;;;;5093056;28;20422;-84
2023/04/20 05:31:15;;;;;;;18.40;17.00;;;;;;;;;;5093046;28;20385;-84
2023/04/20 05:33:41;;;;;;;20.43;18.73;;;;;;;;;;5092557;28;20406;-85
2023/04/20 05:36:09;;;;;;;18.88;17.27;;;;;;;;;;5092796;28;20392;-84
2023/04/20 05:38:35;;;;;;;17.33;15.85;;;;;;;;;;5082728;28;20416;-85
2023/04/20 05:41:01;;;;;;;18.67;17.17;;;;;;;;;;5084102;28;20427;-84
2023/04/20 05:43:27;;;;;;;18.55;16.95;;;;;;;;;;5077078;28;20414;-85
2023/04/20 05:45:53;;;;;;;18.05;16.65;;;;;;;;;;5091324;28;20875;-85
2023/04/20 05:48:19;;;;;;;17.70;16.20;;;;;;;;;;5087264;28;20423;-85
2023/04/20 05:50:45;;;;;;;16.40;15.00;;;;;;;;;;5099359;28;20460;-85
2023/04/20 05:53:11;;;;;;;14.68;13.48;;;;;;;;;;5096011;28;20914;-85
2023/04/20 05:55:37;;;;;;;14.05;12.95;;;;;;;;;;5089151;28;20382;-84
2023/04/20 05:58:03;;;;;;;13.18;12.18;;;;;;;;;;5082513;28;20374;-84
2023/04/20 06:00:29;;;;;;;12.73;11.73;;;;;;;;;;5092108;28;20923;-84
2023/04/20 06:02:55;;;;;;;12.82;11.80;;;;;;;;;;5092452;28;20373;-85
2023/04/20 06:05:21;;;;;;;14.10;12.95;;;;;;;;;;5091741;28;20409;-85
2023/04/20 06:07:47;;;;;;;12.63;11.63;;;;;;;;;;5089979;28;20421;-85
2023/04/20 06:10:13;;;;;;;12.50;11.50;;;;;;;;;;5092451;28;20378;-85
2023/04/20 06:12:39;;;;;;;11.60;10.60;;;;;;;;;;5091574;28;20394;-85
2023/04/20 06:15:08;;;;;;;12.65;11.60;;;;;;;;;;5092371;28;20762;-85
2023/04/20 06:17:36;;;;;;;12.87;11.87;;;;;;;;;;5090703;28;20386;-86
2023/04/20 06:20:02;;;;;;;12.98;11.98;;;;;;;;;;5092206;28;20385;-86
2023/04/20 06:22:28;;;;;;;11.82;10.93;;;;;;;;;;5091623;28;20793;-86
2023/04/20 06:24:54;;;;;;;10.00;9.20;;;;;;;;;;5091961;28;20414;-84
2023/04/20 06:27:20;;;;;;;9.63;8.85;;;;;;;;;;5091735;28;20463;-82
2023/04/20 06:29:46;;;;;;;9.45;8.65;;;;;;;;;;5091718;28;20748;-84
2023/04/20 06:32:12;;;;;;;9.55;8.75;;;;;;;;;;5091462;28;20464;-84
2023/04/20 06:34:38;;;;;;;10.77;9.77;;;;;;;;;;5091129;28;20522;-85
2023/04/20 06:37:06;;;;;;;9.70;8.90;;;;;;;;;;5091484;28;20457;-84
2023/04/20 06:39:32;;;;;;;9.13;8.43;;;;;;;;;;5091809;28;20378;-84
2023/04/20 06:41:58;;;;;;;10.30;9.40;;;;;;;;;;5091236;28;20914;-84
2023/04/20 06:44:24;;;;;;;10.02;9.13;;;;;;;;;;5090613;28;20382;-85
2023/04/20 06:46:50;;;;;;;10.13;9.17;;;;;;;;;;5094286;28;20495;-85
2023/04/20 06:49:16;;;;;;;27.67;21.92;;;;;;;;;;5100890;28;20465;-84
2023/04/20 06:51:42;;;;;;;15.48;13.52;;;;;;;;;;5107439;28;20402;-84
2023/04/20 06:54:09;;;;;;;20.27;16.08;;;;;;;;;;5097942;28;20426;-85
2023/04/20 06:56:35;;;;;;;8.30;7.60;;;;;;;;;;5095621;28;20384;-85
2023/04/20 06:59:01;;;;;;;8.10;7.50;;;;;;;;;;5086871;28;20904;-85
2023/04/20 07:01:27;;;;;;;7.87;7.27;;;;;;;;;;5091633;28;20427;-85
2023/04/20 07:03:53;;;;;;;9.07;8.30;;;;;;;;;;5091171;28;20386;-85
2023/04/20 07:06:19;;;;;;;8.07;7.47;;;;;;;;;;5090821;28;20402;-85
2023/04/20 07:08:45;;;;;;;8.85;8.05;;;;;;;;;;5090204;28;20974;-84
2023/04/20 07:11:11;;;;;;;8.43;7.63;;;;;;;;;;5090975;28;20378;-84
2023/04/20 07:13:37;;;;;;;7.57;6.88;;;;;;;;;;5091300;28;20744;-84
2023/04/20 07:16:03;;;;;;;7.55;7.00;;;;;;;;;;5091253;28;20880;-84
2023/04/20 07:18:30;;;;;;;7.35;6.75;;;;;;;;;;5091233;28;20382;-85
2023/04/20 07:20:55;;;;;;;7.05;6.45;;;;;;;;;;5091227;28;20405;-85
2023/04/20 07:23:21;;;;;;;7.22;6.65;;;;;;;;;;5091145;28;20417;-85
2023/04/20 07:25:47;;;;;;;7.23;6.63;;;;;;;;;;5091251;28;20390;-85
2023/04/20 07:28:13;;;;;;;6.28;5.78;;;;;;;;;;5090739;28;20402;-85
2023/04/20 07:30:39;;;;;;;6.63;6.13;;;;;;;;;;5091169;28;20774;-85
2023/04/20 07:33:07;;;;;;;6.65;6.15;;;;;;;;;;5091011;28;20432;-85
2023/04/20 07:35:33;;;;;;;5.22;4.82;;;;;;;;;;5087986;28;20374;-85
2023/04/20 07:37:59;;;;;;;5.85;5.45;;;;;;;;;;5091136;28;20920;-85
2023/04/20 07:40:25;;;;;;;5.47;5.07;;;;;;;;;;5090701;28;20377;-86
2023/04/20 07:42:51;;;;;;;5.53;5.03;;;;;;;;;;5091051;28;20374;-85
2023/04/20 07:45:17;;;;;;;5.28;4.97;;;;;;;;;;5090986;28;20468;-85
2023/04/20 07:47:45;;;;;;;5.00;4.60;;;;;;;;;;5091062;28;20405;-85
2023/04/20 07:50:12;;;;;;;3.92;3.63;;;;;;;;;;5103034;28;20432;-84
2023/04/20 07:52:38;;;;;;;4.65;4.35;;;;;;;;;;5102005;28;20856;-85
2023/04/20 07:55:04;;;;;;;4.22;3.92;;;;;;;;;;5107878;28;20407;-85
2023/04/20 07:57:30;;;;;;;4.07;3.80;;;;;;;;;;5092299;28;20374;-85
2023/04/20 07:59:56;;;;;;;4.07;3.63;;;;;;;;;;5106196;28;20379;-85
2023/04/20 08:02:23;;;;;;;4.20;3.90;;;;;;;;;;5104480;28;20773;-85
2023/04/20 08:04:49;;;;;;;4.20;3.90;;;;;;;;;;5090877;28;20925;-85
2023/04/20 08:07:15;;;;;;;6.50;6.00;;;;;;;;;;5090603;28;20413;-85
2023/04/20 08:09:41;;;;;;;3.20;3.00;;;;;;;;;;5090819;28;20839;-85
2023/04/20 08:12:07;;;;;;;4.40;3.83;;;;;;;;;;5090354;28;20412;-85
2023/04/20 08:14:33;;;;;;;3.58;3.30;;;;;;;;;;5089554;28;20863;-85
2023/04/20 08:16:59;;;;;;;4.70;4.40;;;;;;;;;;5091485;28;20374;-85
2023/04/20 08:19:25;;;;;;;2.70;2.50;;;;;;;;;;5090517;28;20375;-86
2023/04/20 08:21:53;;;;;;;4.53;4.20;;;;;;;;;;5092102;28;20409;-86
2023/04/20 08:24:19;;;;;;;2.47;2.27;;;;;;;;;;5094477;28;20374;-86
2023/04/20 08:26:45;;;;;;;3.00;2.65;;;;;;;;;;5094153;28;20409;-86
2023/04/20 08:29:11;;;;;;;4.50;4.10;;;;;;;;;;5094077;28;20452;-87
2023/04/20 08:31:37;;;;;;;2.70;2.50;;;;;;;;;;5093811;28;20469;-86
2023/04/20 08:34:03;;;;;;;3.45;3.15;;;;;;;;;;5094595;28;20802;-86
2023/04/20 08:36:30;;;;;;;3.20;2.90;;;;;;;;;;5094123;28;20402;-85
2023/04/20 08:39:04;;;;;;;3.30;3.00;;;;;;;;;;5094212;28;20460;-86
2023/04/20 08:41:31;;;;;;;2.90;2.70;;;;;;;;;;5094292;28;20801;-87
2023/04/20 08:43:57;;;;;;;2.58;2.10;;;;;;;;;;5094002;28;20417;-86
2023/04/20 08:46:24;;;;;;;2.88;2.67;;;;;;;;;;5094084;28;20405;-86
2023/04/20 08:48:50;;;;;;;3.00;2.70;;;;;;;;;;5092640;28;20401;-86
2023/04/20 08:51:46;;;;;;;2.60;2.40;;;;;;;;;;5102697;28;21621;-86
2023/04/20 08:54:11;;;;;;;2.20;2.10;;;;;;;;;;5100431;28;20382;-86
2023/04/20 08:56:42;;;;;;;2.45;2.25;;;;;;;;;;5093858;28;20382;-85
2023/04/20 08:59:09;;;;;;;2.80;2.60;;;;;;;;;;5092415;28;20394;-86
2023/04/20 09:01:35;;;;;;;2.70;2.50;;;;;;;;;;5093828;28;20463;-85
2023/04/20 09:04:02;;;;;;;2.70;2.50;;;;;;;;;;5093559;28;20735;-86
2023/04/20 09:06:28;;;;;;;2.47;2.28;;;;;;;;;;5093621;28;20823;-85
2023/04/20 09:08:54;;;;;;;2.30;2.10;;;;;;;;;;5093512;28;20426;-86
2023/04/20 09:11:24;;;;;;;2.15;1.95;;;;;;;;;;5093358;28;20394;-85
2023/04/20 09:13:57;;;;;;;1.90;1.80;;;;;;;;;;5093455;28;20370;-85
2023/04/20 09:16:23;;;;;;;1.90;1.80;;;;;;;;;;5093495;28;20370;-84
2023/04/20 09:18:53;;;;;;;2.20;2.00;;;;;;;;;;5093465;28;20377;-85
2023/04/20 09:21:20;;;;;;;2.65;2.45;;;;;;;;;;5093092;28;20377;-85
2023/04/20 09:23:55;;;;;;;2.65;2.45;;;;;;;;;;5093273;28;20374;-84
2023/04/20 09:26:21;;;;;;;2.28;2.17;;;;;;;;;;5093119;28;20385;-84
2023/04/20 09:28:47;;;;;;;2.53;2.40;;;;;;;;;;5093209;28;20470;-84
2023/04/20 09:31:17;;;;;;;2.70;2.50;;;;;;;;;;5092637;28;20462;-84
2023/04/20 09:33:43;;;;;;;2.75;2.55;;;;;;;;;;5080102;28;20366;-84
2023/04/20 09:36:10;;;;;;;2.78;2.58;;;;;;;;;;5094088;28;20386;-83
2023/04/20 09:38:36;;;;;;;2.97;2.78;;;;;;;;;;5092959;28;20435;-83
2023/04/20 09:41:03;;;;;;;2.70;2.50;;;;;;;;;;5092915;28;20390;-83
2023/04/20 09:43:30;;;;;;;2.80;2.60;;;;;;;;;;5092820;28;20451;-83
2023/04/20 09:45:56;;;;;;;2.80;2.60;;;;;;;;;;5092974;28;20389;-83
2023/04/20 09:48:22;;;;;;;2.70;2.50;;;;;;;;;;5092731;28;20898;-83
2023/04/20 09:50:48;;;;;;;3.05;2.85;;;;;;;;;;5092794;28;20386;-83
2023/04/20 09:53:17;;;;;;;2.77;2.57;;;;;;;;;;5106188;28;20547;-83
2023/04/20 09:55:48;;;;;;;3.00;2.80;;;;;;;;;;5097701;28;20397;-83
2023/04/20 09:58:14;;;;;;;2.88;2.67;;;;;;;;;;5102147;28;20433;-83
2023/04/20 10:00:42;;;;;;;2.70;2.50;;;;;;;;;;5100294;28;20374;-83
2023/04/20 10:03:09;;;;;;;3.20;3.00;;;;;;;;;;5097265;28;20740;-82
2023/04/20 10:05:38;;;;;;;2.80;2.60;;;;;;;;;;5092522;28;20522;-82
2023/04/20 10:08:04;;;;;;;3.88;3.67;;;;;;;;;;5092293;28;20398;-83
2023/04/20 10:10:30;;;;;;;3.40;3.10;;;;;;;;;;5092278;28;20785;-83
2023/04/20 10:12:57;;;;;;;3.00;2.80;;;;;;;;;;5092172;28;20751;-83
2023/04/20 10:15:26;;;;;;;3.30;3.10;;;;;;;;;;5092408;28;20374;-83
2023/04/20 10:17:52;;;;;;;4.57;4.28;;;;;;;;;;5092083;28;20377;-82
2023/04/20 10:20:19;;;;;;;3.95;3.65;;;;;;;;;;5092030;28;20782;-83
2023/04/20 10:22:45;;;;;;;4.13;3.83;;;;;;;;;;5091957;28;20381;-82
2023/04/20 10:25:19;;;;;;;4.30;4.00;;;;;;;;;;5091990;28;20374;-82
2023/04/20 10:27:57;;;;;;;4.95;4.57;;;;;;;;;;5092007;28;20405;-82
2023/04/20 10:30:24;;;;;;;3.20;3.00;;;;;;;;;;5092013;28;20372;-82
2023/04/20 10:33:01;;;;;;;3.25;3.05;;;;;;;;;;5091620;28;20378;-82
2023/04/20 10:35:28;;;;;;;2.72;2.33;;;;;;;;;;5092069;28;20373;-82
2023/04/20 10:37:55;;;;;;;2.53;2.33;;;;;;;;;;5091978;28;20855;-82
2023/04/20 10:40:27;;;;;;;2.60;2.40;;;;;;;;;;5091840;28;20462;-81
2023/04/20 10:42:53;;;;;;;2.30;2.10;;;;;;;;;;5091760;28;20408;-82
2023/04/20 10:45:20;;;;;;;2.33;2.22;;;;;;;;;;5090164;28;21003;-82
2023/04/20 10:47:46;;;;;;;2.65;2.45;;;;;;;;;;5091652;28;20401;-82
2023/04/20 10:50:13;;;;;;;2.33;2.17;;;;;;;;;;5091401;28;20470;-81
2023/04/20 10:52:40;;;;;;;2.63;2.42;;;;;;;;;;5091660;28;20871;-81
2023/04/20 10:55:17;;;;;;;2.28;2.17;;;;;;;;;;5094446;28;20425;-81
2023/04/20 10:57:46;;;;;;;2.70;2.50;;;;;;;;;;5102259;28;20385;-83
2023/04/20 11:00:19;;;;;;;2.78;2.58;;;;;;;;;;5108452;28;20368;-84
2023/04/20 11:02:47;;;;;;;2.53;2.35;;;;;;;;;;5102724;28;20785;-81
2023/04/20 11:05:14;;;;;;;2.38;2.22;;;;;;;;;;5097906;28;20863;-83
2023/04/20 11:07:47;;;;;;;13.90;12.80;;;;;;;;;;5091330;28;20405;-81
2023/04/20 11:10:13;;;;;;;2.90;2.70;;;;;;;;;;5091553;28;20481;-81
2023/04/20 11:12:39;;;;;;;3.20;3.00;;;;;;;;;;5089809;28;20580;-84
2023/04/20 11:15:05;;;;;;;3.97;3.70;;;;;;;;;;5091561;28;20404;-83
2023/04/20 11:17:32;;;;;;;2.75;2.55;;;;;;;;;;5091293;28;20823;-83
2023/04/20 11:20:15;;;;;;;2.90;2.70;;;;;;;;;;5091339;28;20382;-82
2023/04/20 11:22:41;;;;;;;2.80;2.60;;;;;;;;;;5091311;28;20381;-83
2023/04/20 11:25:09;;;;;;;3.00;2.80;;;;;;;;;;5090932;28;20814;-82
2023/04/20 11:27:36;;;;;;;3.72;3.53;;;;;;;;;;5091289;28;20797;-83
2023/04/20 11:30:04;;;;;;;3.10;2.70;;;;;;;;;;5093527;28;20808;-82
2023/04/20 11:32:31;;;;;;;2.58;2.47;;;;;;;;;;5091223;28;20874;-82
2023/04/20 11:35:02;;;;;;;2.47;2.35;;;;;;;;;;5091174;28;20382;-82
2023/04/20 11:37:28;;;;;;;2.90;2.70;;;;;;;;;;5091224;28;20382;-82
2023/04/20 11:40:02;;;;;;;4.38;4.07;;;;;;;;;;5087782;28;20387;-83
2023/04/20 11:42:28;;;;;;;3.03;2.83;;;;;;;;;;5091056;28;20886;-82
2023/04/20 11:44:55;;;;;;;3.70;3.50;;;;;;;;;;5091044;28;20382;-82
2023/04/20 11:47:21;;;;;;;2.83;2.63;;;;;;;;;;5091084;28;20482;-82
2023/04/20 11:49:47;;;;;;;2.80;2.60;;;;;;;;;;5091196;28;20476;-82
2023/04/20 11:52:14;;;;;;;3.38;3.17;;;;;;;;;;5090970;28;20406;-83
2023/04/20 11:54:40;;;;;;;3.70;3.40;;;;;;;;;;5097745;28;20713;-82
2023/04/20 11:57:12;;;;;;;4.93;4.63;;;;;;;;;;5102882;28;20384;-82
2023/04/20 11:59:46;;;;;;;5.57;5.28;;;;;;;;;;5095627;28;20382;-82
2023/04/20 12:02:13;;;;;;;4.93;4.63;;;;;;;;;;5105888;28;20371;-82
2023/04/20 12:04:39;;;;;;;5.45;5.15;;;;;;;;;;5097764;28;20373;-81
2023/04/20 12:07:09;;;;;;;6.55;6.05;;;;;;;;;;5088584;28;20376;-82
2023/04/20 12:09:39;;;;;;;10.97;10.17;;;;;;;;;;5093401;28;20874;-82
2023/04/20 12:12:23;;;;;;;;;;;;;;;;;;;;;
2023/04/20 12:14:50;;;;;;;5.93;5.53;;;;;;;;;;5094649;28;20374;-82
2023/04/20 12:17:15;;;;;;;4.15;3.85;;;;;;;;;;5094479;28;20467;-82
2023/04/20 12:19:44;;;;;;;4.90;4.60;;;;;;;;;;5094456;28;20381;-82
2023/04/20 12:22:19;;;;;;;3.90;3.70;;;;;;;;;;5094407;28;20779;-82
2023/04/20 12:24:53;;;;;;;3.93;3.73;;;;;;;;;;5094192;28;20451;-82
2023/04/20 12:27:21;;;;;;;4.15;3.95;;;;;;;;;;5094301;28;20374;-82
2023/04/20 12:29:51;;;;;;;4.90;4.60;;;;;;;;;;5094148;28;20378;-82
2023/04/20 12:35:20;;;;;;;4.45;4.07;;;;;;;;;;5090000;28;20382;-82
2023/04/20 12:41:15;;;;;;;4.50;4.20;;;;;;;;;;5071360;28;20383;-82
2023/04/20 12:44:01;;;;;;;5.25;4.95;;;;;;;;;;5077623;28;20390;-82
2023/04/20 12:49:47;;;;;;;6.07;5.57;;;;;;;;;;5085071;28;20394;-82
2023/04/20 12:52:57;;;;;;;5.80;5.40;;;;;;;;;;5093785;28;20378;-82
2023/04/20 12:58:40;;;;;;;5.22;4.93;;;;;;;;;;5099323;28;20405;-82
2023/04/20 13:01:40;;;;;;;4.65;4.25;;;;;;;;;;5080890;28;20393;-82
2023/04/20 13:07:57;;;;;;;5.05;4.75;;;;;;;;;;4991351;28;20427;-82
2023/04/20 13:10:23;;;;;;;5.07;4.78;;;;;;;;;;4991397;28;20394;-82
2023/04/20 13:12:58;;;;;;;5.15;4.78;;;;;;;;;;4992982;28;20872;-82
2023/04/20 13:15:50;;;;;;;5.50;5.10;;;;;;;;;;5011515;28;20482;-82
2023/04/20 13:21:33;;;;;;;5.30;4.90;;;;;;;;;;4985686;28;20845;-82
2023/04/20 13:24:29;;;;;;;5.33;4.93;;;;;;;;;;4978267;28;20454;-82
2023/04/20 13:30:05;;;;;;;;;;;;;;;;;;;;;
2023/04/20 13:32:43;;;;;;;4.97;4.68;;;;;;;;;;4971964;28;20384;-82
2023/04/20 13:38:41;;;;;;;5.10;4.70;;;;;;;;;;4948254;28;20471;-82
2023/04/20 13:44:56;;;;;;;4.95;4.65;;;;;;;;;;5025492;28;20374;-82
2023/04/20 13:47:59;;;;;;;4.90;4.60;;;;;;;;;;5050393;28;20377;-82
2023/04/20 13:51:00;;;;;;;;;;;;;;;;;;;;;
2023/04/20 13:56:33;;;;;;;5.05;4.75;;;;;;;;;;5056227;28;20394;-82
2023/04/20 13:58:59;;;;;;;4.82;4.53;;;;;;;;;;5102574;28;20382;-82
2023/04/20 14:01:26;;;;;;;4.70;4.40;;;;;;;;;;5106394;28;20869;-82
2023/04/20 14:03:52;;;;;;;4.70;4.40;;;;;;;;;;5103830;28;20433;-83
2023/04/20 14:06:18;;;;;;;4.65;4.35;;;;;;;;;;5102441;28;20458;-82
2023/04/20 14:08:44;;;;;;;4.97;4.67;;;;;;;;;;5099972;28;20407;-83
2023/04/20 14:11:10;;;;;;;5.10;4.80;;;;;;;;;;5104109;28;20374;-82
2023/04/20 14:13:37;;;;;;;4.93;4.63;;;;;;;;;;5092246;28;20382;-82
2023/04/20 14:16:08;;;;;;;5.38;5.03;;;;;;;;;;5092182;28;20420;-82
2023/04/20 14:18:34;;;;;;;5.38;4.97;;;;;;;;;;5092137;28;20510;-82
2023/04/20 14:21:00;;;;;;;5.18;4.88;;;;;;;;;;5091653;28;20382;-82
2023/04/20 14:23:26;;;;;;;5.35;4.95;;;;;;;;;;5092099;28;20388;-82
2023/04/20 14:25:52;;;;;;;5.50;5.15;;;;;;;;;;5092255;28;20933;-83
2023/04/20 14:28:18;;;;;;;6.10;5.70;;;;;;;;;;5091935;28;20413;-83
2023/04/20 14:30:45;;;;;;;5.78;5.38;;;;;;;;;;5092135;28;20377;-83
2023/04/20 14:33:11;;;;;;;5.80;5.40;;;;;;;;;;5091429;28;20370;-83
2023/04/20 14:35:37;;;;;;;6.47;6.00;;;;;;;;;;5091972;28;20820;-83
2023/04/20 14:38:03;;;;;;;5.72;5.32;;;;;;;;;;5091929;28;20476;-83
2023/04/20 14:40:30;;;;;;;6.63;6.13;;;;;;;;;;5091789;28;20378;-83
2023/04/20 14:42:56;;;;;;;8.15;7.65;;;;;;;;;;5091678;28;20443;-84
2023/04/20 14:45:22;;;;;;;7.82;7.32;;;;;;;;;;5091646;28;20902;-83
2023/04/20 14:47:52;;;;;;;7.57;7.00;;;;;;;;;;5091658;28;20410;-84
2023/04/20 14:50:18;;;;;;;7.38;6.80;;;;;;;;;;5091581;28;20397;-84
2023/04/20 14:52:44;;;;;;;7.60;7.10;;;;;;;;;;5091603;28;20868;-84
2023/04/20 14:55:10;;;;;;;7.22;6.70;;;;;;;;;;5091434;28;20453;-84
2023/04/20 14:57:36;;;;;;;6.85;6.35;;;;;;;;;;5091626;28;20413;-83
2023/04/20 15:00:04;;;;;;;7.03;6.43;;;;;;;;;;5108819;28;20888;-83
2023/04/20 15:02:30;;;;;;;7.32;6.82;;;;;;;;;;5107056;28;20403;-84
2023/04/20 15:04:57;;;;;;;10.25;9.55;;;;;;;;;;5099232;28;20847;-83
2023/04/20 15:07:23;;;;;;;11.75;10.85;;;;;;;;;;5091076;28;20378;-83
2023/04/20 15:09:49;;;;;;;13.70;12.70;;;;;;;;;;5091522;28;20799;-83
2023/04/20 15:12:15;;;;;;;14.18;13.20;;;;;;;;;;5091108;28;20428;-83
2023/04/20 15:14:41;;;;;;;14.38;13.38;;;;;;;;;;5091466;28;20804;-83